Impacts TAF Board
For situational awareness. Not to be used for flight planning purposes.
IDs:

KSFO - San Francisco Intl, CA, US

Issued at 1720 UTC 20 Sep 2018
Updated at 1956 UTC 20 Sep 2018
Potential Impact None Slight Moderate High
Time1856Z 20/20Z 20/21Z 20/22Z 20/23Z 21/00Z 21/01Z 21/02Z 21/03Z 21/04Z 21/05Z 21/06Z 21/07Z 21/08Z>>
Type OBS PRVL PRVL PRVL PRVL PRVL PRVL PRVL PRVL PRVL PRVL PRVL PRVL PRVL
VIS 10 >6 >6 >6 >6 >6 >6 >6 >6 >6 >6 >6 >6 >6
CIG -- -- -- -- -- -- -- -- -- -- -- -- -- --
Cover CLR SKC SKC SKC SKC SKC SKC SKC SKC SKC SKC SKC SKC SKC
FltCat VFR VFR VFR VFR VFR VFR VFR VFR VFR VFR VFR VFR VFR VFR
WX -- -- -- -- -- -- -- -- -- -- -- -- -- --
WDir 40 340 340 310 310 310 310 310 310 310 310 VRB VRB VRB
WSpd 4 7 7 12 12 12 12 12 12 12 12 3 3 3
WGst -- -- -- -- -- -- -- -- -- -- -- -- -- --
Raw TAF
KSFO 201720Z 2018/2124 05003KT P6SM SKC
  FM202000 34007KT P6SM SKC
  FM202200 31012KT P6SM SKC
  FM210600 VRB03KT P6SM SKC
  FM211800 33005KT P6SM SKC


Raw METAR
KSFO 201856Z 04004KT 10SM CLR 21/15 A2987 RMK AO2 SLP115 T02110150
KSFO 201756Z 04005KT 10SM CLR 19/14 A2988 RMK AO2 SLP118 T01940144 10194 20128 50005
KSFO 201656Z 07004KT 10SM CLR 18/14 A2988 RMK AO2 SLP118 T01830139

METAR Board
Radar Display
Forecast Discussion
For situational awareness. Not to be used for flight planning purposes.